Kapaau, Hawaii
Current Conditions -  °F | °C
As of 12:56 PM on Thursday 18 Dec 2014 (Local Time) from PHSF Reporting Station
Clear Clear  
Wind Chill: 72°   Ceiling: Unl
Heat Index: 72°   Visibility: 10mi
Dew Point: 35°   Wind: 24mph
Humidity: 26%   Direction: 150°SSE
Pressure: 30.35"   Gusts: 33mph
Location:  20.22°N, 155.79°W
Report Text: PHSF 182256Z AUTO 15021G29KT 10SM CLR 22/02 A3035 RMK AO2 PK WND 14027/54 SLP164 T02230016 $
Loading
Personal Weather Stations






























Interactive Weather Map New forecast layout! Learn more

10-Day Weather Forecast

Advertisements
Track Severe Weather on mobile